sensor_id;sensor_type;location;lat;lon;timestamp;P1;durP1;ratioP1;P2;durP2;ratioP2
22679;SDS011;11507;44.858;10.374;2024-03-07T00:01:13;16.77;;;10.32;;
22679;SDS011;11507;44.858;10.374;2024-03-07T00:03:39;16.98;;;9.73;;
22679;SDS011;11507;44.858;10.374;2024-03-07T00:06:05;14.45;;;9.85;;
22679;SDS011;11507;44.858;10.374;2024-03-07T00:08:35;16.35;;;9.50;;
22679;SDS011;11507;44.858;10.374;2024-03-07T00:11:01;18.48;;;9.57;;
22679;SDS011;11507;44.858;10.374;2024-03-07T00:13:28;13.68;;;9.10;;
22679;SDS011;11507;44.858;10.374;2024-03-07T00:15:54;13.20;;;9.35;;
22679;SDS011;11507;44.858;10.374;2024-03-07T00:18:21;13.90;;;9.00;;
22679;SDS011;11507;44.858;10.374;2024-03-07T00:20:48;13.77;;;8.80;;
22679;SDS011;11507;44.858;10.374;2024-03-07T00:23:14;19.58;;;9.40;;
22679;SDS011;11507;44.858;10.374;2024-03-07T00:25:42;14.60;;;8.45;;
22679;SDS011;11507;44.858;10.374;2024-03-07T00:28:08;13.55;;;8.82;;
22679;SDS011;11507;44.858;10.374;2024-03-07T00:30:35;15.95;;;9.05;;
22679;SDS011;11507;44.858;10.374;2024-03-07T00:33:01;16.30;;;9.52;;
22679;SDS011;11507;44.858;10.374;2024-03-07T00:35:27;12.35;;;8.38;;
22679;SDS011;11507;44.858;10.374;2024-03-07T00:37:54;18.65;;;9.70;;
22679;SDS011;11507;44.858;10.374;2024-03-07T00:40:22;14.30;;;8.82;;
22679;SDS011;11507;44.858;10.374;2024-03-07T00:42:49;12.90;;;8.32;;
22679;SDS011;11507;44.858;10.374;2024-03-07T00:45:16;15.63;;;8.65;;
22679;SDS011;11507;44.858;10.374;2024-03-07T00:47:43;12.43;;;8.70;;
22679;SDS011;11507;44.858;10.374;2024-03-07T00:50:09;20.73;;;12.55;;
22679;SDS011;11507;44.858;10.374;2024-03-07T00:52:36;23.02;;;14.10;;
22679;SDS011;11507;44.858;10.374;2024-03-07T00:55:03;26.35;;;15.20;;
22679;SDS011;11507;44.858;10.374;2024-03-07T00:57:34;21.83;;;15.13;;
22679;SDS011;11507;44.858;10.374;2024-03-07T01:00:01;22.88;;;14.13;;
22679;SDS011;11507;44.858;10.374;2024-03-07T01:02:28;23.67;;;13.75;;
22679;SDS011;11507;44.858;10.374;2024-03-07T01:04:55;18.33;;;12.90;;
22679;SDS011;11507;44.858;10.374;2024-03-07T01:07:22;19.10;;;12.30;;
22679;SDS011;11507;44.858;10.374;2024-03-07T01:09:49;20.63;;;11.75;;
22679;SDS011;11507;44.858;10.374;2024-03-07T01:12:15;17.30;;;11.18;;
22679;SDS011;11507;44.858;10.374;2024-03-07T01:14:42;18.00;;;10.80;;
22679;SDS011;11507;44.858;10.374;2024-03-07T01:17:09;15.82;;;10.30;;
22679;SDS011;11507;44.858;10.374;2024-03-07T01:19:35;19.00;;;10.35;;
22679;SDS011;11507;44.858;10.374;2024-03-07T01:22:03;17.13;;;10.45;;
22679;SDS011;11507;44.858;10.374;2024-03-07T01:24:31;16.23;;;10.30;;
22679;SDS011;11507;44.858;10.374;2024-03-07T01:27:02;15.13;;;10.23;;
22679;SDS011;11507;44.858;10.374;2024-03-07T01:29:28;15.70;;;9.45;;
22679;SDS011;11507;44.858;10.374;2024-03-07T01:31:55;18.17;;;9.52;;
22679;SDS011;11507;44.858;10.374;2024-03-07T01:34:21;16.90;;;9.40;;
22679;SDS011;11507;44.858;10.374;2024-03-07T01:36:47;16.83;;;8.63;;
22679;SDS011;11507;44.858;10.374;2024-03-07T01:39:14;16.05;;;8.90;;
22679;SDS011;11507;44.858;10.374;2024-03-07T01:41:41;13.55;;;7.85;;
22679;SDS011;11507;44.858;10.374;2024-03-07T01:44:07;12.32;;;8.05;;
22679;SDS011;11507;44.858;10.374;2024-03-07T01:46:33;15.23;;;7.97;;
22679;SDS011;11507;44.858;10.374;2024-03-07T01:49:00;12.40;;;7.93;;
22679;SDS011;11507;44.858;10.374;2024-03-07T01:51:26;16.70;;;7.40;;
22679;SDS011;11507;44.858;10.374;2024-03-07T01:53:57;13.77;;;7.68;;
22679;SDS011;11507;44.858;10.374;2024-03-07T01:56:34;13.82;;;8.02;;
22679;SDS011;11507;44.858;10.374;2024-03-07T01:59:03;12.27;;;7.47;;
22679;SDS011;11507;44.858;10.374;2024-03-07T02:01:31;14.43;;;6.90;;
22679;SDS011;11507;44.858;10.374;2024-03-07T02:03:58;10.55;;;6.88;;
22679;SDS011;11507;44.858;10.374;2024-03-07T02:06:24;10.57;;;6.53;;
22679;SDS011;11507;44.858;10.374;2024-03-07T02:08:52;11.07;;;6.20;;
22679;SDS011;11507;44.858;10.374;2024-03-07T02:11:18;12.25;;;6.13;;
22679;SDS011;11507;44.858;10.374;2024-03-07T02:13:44;11.43;;;6.22;;
22679;SDS011;11507;44.858;10.374;2024-03-07T02:16:11;9.30;;;5.88;;
22679;SDS011;11507;44.858;10.374;2024-03-07T02:18:38;10.50;;;5.90;;
22679;SDS011;11507;44.858;10.374;2024-03-07T02:21:09;10.82;;;5.65;;
22679;SDS011;11507;44.858;10.374;2024-03-07T02:23:40;9.43;;;5.70;;
22679;SDS011;11507;44.858;10.374;2024-03-07T02:26:07;12.15;;;5.70;;
22679;SDS011;11507;44.858;10.374;2024-03-07T02:28:36;11.65;;;4.85;;
22679;SDS011;11507;44.858;10.374;2024-03-07T02:31:03;10.45;;;5.50;;
22679;SDS011;11507;44.858;10.374;2024-03-07T02:36:29;9.85;;;5.03;;
22679;SDS011;11507;44.858;10.374;2024-03-07T02:38:56;9.90;;;4.90;;
22679;SDS011;11507;44.858;10.374;2024-03-07T02:41:25;8.20;;;4.90;;
22679;SDS011;11507;44.858;10.374;2024-03-07T02:43:52;9.40;;;4.78;;
22679;SDS011;11507;44.858;10.374;2024-03-07T02:46:19;8.88;;;4.90;;
22679;SDS011;11507;44.858;10.374;2024-03-07T02:48:45;9.07;;;5.05;;
22679;SDS011;11507;44.858;10.374;2024-03-07T02:51:13;9.50;;;5.05;;
22679;SDS011;11507;44.858;10.374;2024-03-07T02:53:40;10.27;;;5.13;;
22679;SDS011;11507;44.858;10.374;2024-03-07T02:56:06;9.23;;;4.60;;
22679;SDS011;11507;44.858;10.374;2024-03-07T02:58:33;10.77;;;4.80;;
22679;SDS011;11507;44.858;10.374;2024-03-07T03:01:00;8.40;;;4.75;;
22679;SDS011;11507;44.858;10.374;2024-03-07T03:03:28;7.50;;;4.57;;
22679;SDS011;11507;44.858;10.374;2024-03-07T03:05:58;9.43;;;4.32;;
22679;SDS011;11507;44.858;10.374;2024-03-07T03:08:25;8.57;;;4.75;;
22679;SDS011;11507;44.858;10.374;2024-03-07T03:10:54;11.02;;;5.13;;
22679;SDS011;11507;44.858;10.374;2024-03-07T03:13:23;12.45;;;5.50;;
22679;SDS011;11507;44.858;10.374;2024-03-07T03:15:53;11.05;;;4.70;;
22679;SDS011;11507;44.858;10.374;2024-03-07T03:18:21;8.13;;;4.45;;
22679;SDS011;11507;44.858;10.374;2024-03-07T03:20:49;10.20;;;5.10;;
22679;SDS011;11507;44.858;10.374;2024-03-07T03:23:15;9.82;;;4.90;;
22679;SDS011;11507;44.858;10.374;2024-03-07T03:25:42;11.18;;;4.75;;
22679;SDS011;11507;44.858;10.374;2024-03-07T03:28:08;9.93;;;4.85;;
22679;SDS011;11507;44.858;10.374;2024-03-07T03:30:39;8.15;;;4.50;;
22679;SDS011;11507;44.858;10.374;2024-03-07T03:33:07;8.10;;;4.68;;
22679;SDS011;11507;44.858;10.374;2024-03-07T03:35:33;7.55;;;4.15;;
22679;SDS011;11507;44.858;10.374;2024-03-07T03:38:03;7.80;;;4.40;;
22679;SDS011;11507;44.858;10.374;2024-03-07T03:40:29;8.63;;;4.43;;
22679;SDS011;11507;44.858;10.374;2024-03-07T03:42:57;8.30;;;4.55;;
22679;SDS011;11507;44.858;10.374;2024-03-07T03:45:23;8.15;;;4.35;;
22679;SDS011;11507;44.858;10.374;2024-03-07T03:47:51;8.65;;;4.40;;
22679;SDS011;11507;44.858;10.374;2024-03-07T03:50:18;8.82;;;4.50;;
22679;SDS011;11507;44.858;10.374;2024-03-07T03:52:44;6.90;;;4.22;;
22679;SDS011;11507;44.858;10.374;2024-03-07T03:55:11;12.57;;;4.40;;
22679;SDS011;11507;44.858;10.374;2024-03-07T03:57:39;6.25;;;3.80;;
22679;SDS011;11507;44.858;10.374;2024-03-07T04:00:06;9.80;;;4.40;;
22679;SDS011;11507;44.858;10.374;2024-03-07T04:02:43;9.20;;;4.18;;
22679;SDS011;11507;44.858;10.374;2024-03-07T04:05:15;8.40;;;4.38;;
22679;SDS011;11507;44.858;10.374;2024-03-07T04:07:43;7.70;;;4.20;;
22679;SDS011;11507;44.858;10.374;2024-03-07T04:10:10;8.70;;;4.47;;
22679;SDS011;11507;44.858;10.374;2024-03-07T04:12:38;10.30;;;4.47;;
22679;SDS011;11507;44.858;10.374;2024-03-07T04:15:06;6.97;;;3.90;;
22679;SDS011;11507;44.858;10.374;2024-03-07T04:17:34;8.73;;;4.07;;
22679;SDS011;11507;44.858;10.374;2024-03-07T04:20:01;8.48;;;4.30;;
22679;SDS011;11507;44.858;10.374;2024-03-07T04:22:31;7.60;;;4.00;;
22679;SDS011;11507;44.858;10.374;2024-03-07T04:25:01;8.20;;;4.05;;
22679;SDS011;11507;44.858;10.374;2024-03-07T04:27:28;8.60;;;4.07;;
22679;SDS011;11507;44.858;10.374;2024-03-07T04:29:54;9.25;;;4.10;;
22679;SDS011;11507;44.858;10.374;2024-03-07T04:32:20;7.88;;;4.07;;
22679;SDS011;11507;44.858;10.374;2024-03-07T04:34:47;8.57;;;4.70;;
22679;SDS011;11507;44.858;10.374;2024-03-07T04:37:14;7.75;;;4.53;;
22679;SDS011;11507;44.858;10.374;2024-03-07T04:39:40;8.13;;;4.60;;
22679;SDS011;11507;44.858;10.374;2024-03-07T04:42:07;7.38;;;4.50;;
22679;SDS011;11507;44.858;10.374;2024-03-07T04:44:35;7.18;;;4.03;;
22679;SDS011;11507;44.858;10.374;2024-03-07T04:47:05;6.97;;;3.90;;
22679;SDS011;11507;44.858;10.374;2024-03-07T04:49:33;10.32;;;4.60;;
22679;SDS011;11507;44.858;10.374;2024-03-07T04:52:01;6.95;;;4.15;;
22679;SDS011;11507;44.858;10.374;2024-03-07T04:54:29;8.77;;;4.90;;
22679;SDS011;11507;44.858;10.374;2024-03-07T04:56:57;9.80;;;5.30;;
22679;SDS011;11507;44.858;10.374;2024-03-07T04:59:23;10.43;;;4.68;;
22679;SDS011;11507;44.858;10.374;2024-03-07T05:01:49;7.00;;;4.07;;
22679;SDS011;11507;44.858;10.374;2024-03-07T05:04:16;7.03;;;4.05;;
22679;SDS011;11507;44.858;10.374;2024-03-07T05:06:43;9.25;;;4.38;;
22679;SDS011;11507;44.858;10.374;2024-03-07T05:09:09;7.47;;;4.25;;
22679;SDS011;11507;44.858;10.374;2024-03-07T05:11:48;7.45;;;4.50;;
22679;SDS011;11507;44.858;10.374;2024-03-07T05:14:18;8.32;;;4.47;;
22679;SDS011;11507;44.858;10.374;2024-03-07T05:16:45;8.15;;;4.32;;
22679;SDS011;11507;44.858;10.374;2024-03-07T05:19:27;7.63;;;3.97;;
22679;SDS011;11507;44.858;10.374;2024-03-07T05:21:54;10.05;;;4.38;;
22679;SDS011;11507;44.858;10.374;2024-03-07T05:24:20;6.55;;;4.00;;
22679;SDS011;11507;44.858;10.374;2024-03-07T05:26:47;8.23;;;4.30;;
22679;SDS011;11507;44.858;10.374;2024-03-07T05:29:13;8.60;;;3.65;;
22679;SDS011;11507;44.858;10.374;2024-03-07T05:31:40;6.90;;;3.47;;
22679;SDS011;11507;44.858;10.374;2024-03-07T05:34:14;7.60;;;3.70;;
22679;SDS011;11507;44.858;10.374;2024-03-07T05:36:44;5.72;;;3.08;;
22679;SDS011;11507;44.858;10.374;2024-03-07T05:39:12;5.90;;;2.67;;
22679;SDS011;11507;44.858;10.374;2024-03-07T05:41:40;6.25;;;3.28;;
22679;SDS011;11507;44.858;10.374;2024-03-07T05:44:08;7.97;;;3.50;;
22679;SDS011;11507;44.858;10.374;2024-03-07T05:46:38;7.85;;;3.83;;
22679;SDS011;11507;44.858;10.374;2024-03-07T05:49:12;6.47;;;3.80;;
22679;SDS011;11507;44.858;10.374;2024-03-07T05:51:40;6.60;;;3.10;;
22679;SDS011;11507;44.858;10.374;2024-03-07T05:54:16;6.65;;;3.95;;
22679;SDS011;11507;44.858;10.374;2024-03-07T05:56:44;8.40;;;4.28;;
22679;SDS011;11507;44.858;10.374;2024-03-07T05:59:10;7.20;;;4.05;;
22679;SDS011;11507;44.858;10.374;2024-03-07T06:01:36;8.70;;;4.30;;
22679;SDS011;11507;44.858;10.374;2024-03-07T06:04:03;8.23;;;3.90;;
22679;SDS011;11507;44.858;10.374;2024-03-07T06:06:32;8.35;;;3.83;;
22679;SDS011;11507;44.858;10.374;2024-03-07T06:09:02;7.95;;;4.05;;
22679;SDS011;11507;44.858;10.374;2024-03-07T06:11:33;8.40;;;3.88;;
22679;SDS011;11507;44.858;10.374;2024-03-07T06:14:01;10.27;;;4.70;;
22679;SDS011;11507;44.858;10.374;2024-03-07T06:16:37;8.75;;;3.95;;
22679;SDS011;11507;44.858;10.374;2024-03-07T06:19:04;9.35;;;4.13;;
22679;SDS011;11507;44.858;10.374;2024-03-07T06:21:39;7.35;;;3.92;;
22679;SDS011;11507;44.858;10.374;2024-03-07T06:24:08;7.20;;;4.05;;
22679;SDS011;11507;44.858;10.374;2024-03-07T06:26:36;7.40;;;4.38;;
22679;SDS011;11507;44.858;10.374;2024-03-07T06:29:09;6.82;;;3.70;;
22679;SDS011;11507;44.858;10.374;2024-03-07T06:31:40;5.55;;;3.10;;
22679;SDS011;11507;44.858;10.374;2024-03-07T06:34:09;6.22;;;3.33;;
22679;SDS011;11507;44.858;10.374;2024-03-07T06:36:38;7.13;;;3.55;;
22679;SDS011;11507;44.858;10.374;2024-03-07T06:39:06;7.68;;;3.60;;
22679;SDS011;11507;44.858;10.374;2024-03-07T06:41:33;7.72;;;4.40;;
22679;SDS011;11507;44.858;10.374;2024-03-07T06:43:59;8.57;;;4.20;;
22679;SDS011;11507;44.858;10.374;2024-03-07T06:46:26;8.55;;;4.40;;
22679;SDS011;11507;44.858;10.374;2024-03-07T06:48:53;7.10;;;3.90;;
22679;SDS011;11507;44.858;10.374;2024-03-07T06:51:21;5.85;;;3.70;;
22679;SDS011;11507;44.858;10.374;2024-03-07T06:53:48;11.82;;;4.80;;
22679;SDS011;11507;44.858;10.374;2024-03-07T06:56:15;10.00;;;4.63;;
22679;SDS011;11507;44.858;10.374;2024-03-07T06:58:42;10.00;;;4.90;;
22679;SDS011;11507;44.858;10.374;2024-03-07T07:01:11;9.77;;;4.32;;
22679;SDS011;11507;44.858;10.374;2024-03-07T07:03:41;9.05;;;4.13;;
22679;SDS011;11507;44.858;10.374;2024-03-07T07:06:09;10.68;;;4.70;;
22679;SDS011;11507;44.858;10.374;2024-03-07T07:08:38;12.55;;;4.55;;
22679;SDS011;11507;44.858;10.374;2024-03-07T07:11:05;8.73;;;4.25;;
22679;SDS011;11507;44.858;10.374;2024-03-07T07:13:32;12.63;;;4.32;;
22679;SDS011;11507;44.858;10.374;2024-03-07T07:15:59;9.93;;;5.03;;
22679;SDS011;11507;44.858;10.374;2024-03-07T07:18:25;9.32;;;4.38;;
22679;SDS011;11507;44.858;10.374;2024-03-07T07:20:52;8.75;;;4.10;;
22679;SDS011;11507;44.858;10.374;2024-03-07T07:23:19;9.20;;;4.60;;
22679;SDS011;11507;44.858;10.374;2024-03-07T07:25:46;11.07;;;4.53;;
22679;SDS011;11507;44.858;10.374;2024-03-07T07:28:12;12.27;;;5.03;;
22679;SDS011;11507;44.858;10.374;2024-03-07T07:30:41;8.70;;;5.05;;
22679;SDS011;11507;44.858;10.374;2024-03-07T07:33:07;10.55;;;5.20;;
22679;SDS011;11507;44.858;10.374;2024-03-07T07:35:34;12.45;;;5.65;;
22679;SDS011;11507;44.858;10.374;2024-03-07T07:38:01;11.02;;;5.68;;
22679;SDS011;11507;44.858;10.374;2024-03-07T07:40:27;13.02;;;6.10;;
22679;SDS011;11507;44.858;10.374;2024-03-07T07:42:57;10.07;;;5.45;;
22679;SDS011;11507;44.858;10.374;2024-03-07T07:45:23;12.27;;;5.40;;
22679;SDS011;11507;44.858;10.374;2024-03-07T07:47:51;11.82;;;6.00;;
22679;SDS011;11507;44.858;10.374;2024-03-07T07:50:21;10.30;;;5.55;;
22679;SDS011;11507;44.858;10.374;2024-03-07T07:52:49;10.32;;;5.60;;
22679;SDS011;11507;44.858;10.374;2024-03-07T07:55:20;14.23;;;6.38;;
22679;SDS011;11507;44.858;10.374;2024-03-07T07:57:50;11.95;;;6.25;;
22679;SDS011;11507;44.858;10.374;2024-03-07T08:00:18;11.05;;;5.70;;
22679;SDS011;11507;44.858;10.374;2024-03-07T08:05:27;12.43;;;6.28;;
22679;SDS011;11507;44.858;10.374;2024-03-07T08:07:55;10.85;;;6.35;;
22679;SDS011;11507;44.858;10.374;2024-03-07T08:10:24;10.18;;;6.43;;
22679;SDS011;11507;44.858;10.374;2024-03-07T08:12:57;12.07;;;7.10;;
22679;SDS011;11507;44.858;10.374;2024-03-07T08:15:28;15.60;;;8.52;;
22679;SDS011;11507;44.858;10.374;2024-03-07T08:17:55;14.98;;;8.93;;
22679;SDS011;11507;44.858;10.374;2024-03-07T08:20:23;14.93;;;6.07;;
22679;SDS011;11507;44.858;10.374;2024-03-07T08:22:51;11.05;;;5.55;;
22679;SDS011;11507;44.858;10.374;2024-03-07T08:25:20;9.20;;;5.85;;
22679;SDS011;11507;44.858;10.374;2024-03-07T08:27:49;7.38;;;4.63;;
22679;SDS011;11507;44.858;10.374;2024-03-07T08:30:16;8.43;;;4.70;;
22679;SDS011;11507;44.858;10.374;2024-03-07T08:32:46;7.30;;;4.43;;
22679;SDS011;11507;44.858;10.374;2024-03-07T08:35:20;7.78;;;4.40;;
22679;SDS011;11507;44.858;10.374;2024-03-07T08:37:48;9.20;;;4.57;;
22679;SDS011;11507;44.858;10.374;2024-03-07T08:40:19;8.15;;;4.68;;
22679;SDS011;11507;44.858;10.374;2024-03-07T08:42:50;7.32;;;4.70;;
22679;SDS011;11507;44.858;10.374;2024-03-07T08:45:18;7.88;;;4.40;;
22679;SDS011;11507;44.858;10.374;2024-03-07T08:47:45;7.15;;;4.50;;
22679;SDS011;11507;44.858;10.374;2024-03-07T08:50:12;9.20;;;4.75;;
22679;SDS011;11507;44.858;10.374;2024-03-07T08:52:39;13.27;;;5.30;;
22679;SDS011;11507;44.858;10.374;2024-03-07T08:55:09;9.13;;;5.10;;
22679;SDS011;11507;44.858;10.374;2024-03-07T08:57:40;12.15;;;5.32;;
22679;SDS011;11507;44.858;10.374;2024-03-07T09:00:07;11.45;;;6.60;;
22679;SDS011;11507;44.858;10.374;2024-03-07T09:02:35;11.52;;;6.32;;
22679;SDS011;11507;44.858;10.374;2024-03-07T09:05:02;12.55;;;6.13;;
22679;SDS011;11507;44.858;10.374;2024-03-07T09:07:29;11.73;;;6.57;;
22679;SDS011;11507;44.858;10.374;2024-03-07T09:09:57;11.60;;;7.35;;
22679;SDS011;11507;44.858;10.374;2024-03-07T09:12:23;14.80;;;9.05;;
22679;SDS011;11507;44.858;10.374;2024-03-07T09:14:52;17.42;;;9.38;;
22679;SDS011;11507;44.858;10.374;2024-03-07T09:17:19;15.38;;;9.77;;
22679;SDS011;11507;44.858;10.374;2024-03-07T09:19:45;14.93;;;10.15;;
22679;SDS011;11507;44.858;10.374;2024-03-07T09:22:12;15.70;;;11.15;;
22679;SDS011;11507;44.858;10.374;2024-03-07T09:24:38;20.63;;;12.60;;
22679;SDS011;11507;44.858;10.374;2024-03-07T09:27:04;20.08;;;12.38;;
22679;SDS011;11507;44.858;10.374;2024-03-07T09:29:31;19.00;;;11.98;;
22679;SDS011;11507;44.858;10.374;2024-03-07T09:31:57;17.15;;;10.98;;
22679;SDS011;11507;44.858;10.374;2024-03-07T09:34:24;19.70;;;11.18;;
22679;SDS011;11507;44.858;10.374;2024-03-07T09:36:51;17.58;;;10.25;;
22679;SDS011;11507;44.858;10.374;2024-03-07T09:39:18;17.60;;;11.25;;
22679;SDS011;11507;44.858;10.374;2024-03-07T09:41:44;12.90;;;9.75;;
22679;SDS011;11507;44.858;10.374;2024-03-07T09:44:16;13.27;;;8.75;;
22679;SDS011;11507;44.858;10.374;2024-03-07T09:46:49;13.00;;;9.25;;
22679;SDS011;11507;44.858;10.374;2024-03-07T09:49:18;13.65;;;8.35;;
22679;SDS011;11507;44.858;10.374;2024-03-07T09:51:46;13.85;;;7.68;;
22679;SDS011;11507;44.858;10.374;2024-03-07T09:54:26;13.90;;;7.20;;
22679;SDS011;11507;44.858;10.374;2024-03-07T09:56:53;11.43;;;7.30;;
22679;SDS011;11507;44.858;10.374;2024-03-07T09:59:24;11.35;;;6.97;;
22679;SDS011;11507;44.858;10.374;2024-03-07T10:01:56;12.68;;;7.97;;
22679;SDS011;11507;44.858;10.374;2024-03-07T10:04:37;12.70;;;6.90;;
22679;SDS011;11507;44.858;10.374;2024-03-07T10:07:16;10.77;;;6.70;;
22679;SDS011;11507;44.858;10.374;2024-03-07T10:09:44;14.90;;;7.70;;
22679;SDS011;11507;44.858;10.374;2024-03-07T10:12:11;11.45;;;7.00;;
22679;SDS011;11507;44.858;10.374;2024-03-07T10:14:55;12.00;;;6.88;;
22679;SDS011;11507;44.858;10.374;2024-03-07T10:17:25;11.18;;;7.28;;
22679;SDS011;11507;44.858;10.374;2024-03-07T10:19:58;10.63;;;6.38;;
22679;SDS011;11507;44.858;10.374;2024-03-07T10:22:29;10.98;;;6.75;;
22679;SDS011;11507;44.858;10.374;2024-03-07T10:24:56;13.00;;;6.60;;
22679;SDS011;11507;44.858;10.374;2024-03-07T10:27:23;13.60;;;7.50;;
22679;SDS011;11507;44.858;10.374;2024-03-07T10:29:51;11.00;;;6.07;;
22679;SDS011;11507;44.858;10.374;2024-03-07T10:32:23;12.95;;;7.43;;
22679;SDS011;11507;44.858;10.374;2024-03-07T10:34:51;12.32;;;7.78;;
22679;SDS011;11507;44.858;10.374;2024-03-07T10:37:19;11.07;;;7.90;;
22679;SDS011;11507;44.858;10.374;2024-03-07T10:39:50;11.68;;;7.50;;
22679;SDS011;11507;44.858;10.374;2024-03-07T10:42:17;10.73;;;6.90;;
22679;SDS011;11507;44.858;10.374;2024-03-07T10:44:48;13.02;;;6.78;;
22679;SDS011;11507;44.858;10.374;2024-03-07T10:47:18;10.38;;;7.35;;
22679;SDS011;11507;44.858;10.374;2024-03-07T10:58:58;9.70;;;6.00;;
22679;SDS011;11507;44.858;10.374;2024-03-07T11:01:30;8.10;;;5.68;;
22679;SDS011;11507;44.858;10.374;2024-03-07T11:03:59;8.75;;;5.50;;
22679;SDS011;11507;44.858;10.374;2024-03-07T11:06:29;8.05;;;5.35;;
22679;SDS011;11507;44.858;10.374;2024-03-07T11:08:59;7.80;;;4.70;;
22679;SDS011;11507;44.858;10.374;2024-03-07T11:11:29;7.93;;;4.53;;
22679;SDS011;11507;44.858;10.374;2024-03-07T11:13:56;6.38;;;3.20;;
22679;SDS011;11507;44.858;10.374;2024-03-07T11:16:24;6.03;;;3.47;;
22679;SDS011;11507;44.858;10.374;2024-03-07T11:21:51;4.35;;;2.78;;
22679;SDS011;11507;44.858;10.374;2024-03-07T11:24:26;5.85;;;3.22;;
22679;SDS011;11507;44.858;10.374;2024-03-07T11:26:55;5.83;;;3.37;;
22679;SDS011;11507;44.858;10.374;2024-03-07T11:32:12;6.38;;;3.20;;
22679;SDS011;11507;44.858;10.374;2024-03-07T11:34:43;4.88;;;3.08;;
22679;SDS011;11507;44.858;10.374;2024-03-07T11:37:17;7.07;;;3.65;;
22679;SDS011;11507;44.858;10.374;2024-03-07T11:39:48;6.57;;;5.03;;
22679;SDS011;11507;44.858;10.374;2024-03-07T11:42:33;6.40;;;4.55;;
22679;SDS011;11507;44.858;10.374;2024-03-07T11:45:01;6.97;;;4.57;;
22679;SDS011;11507;44.858;10.374;2024-03-07T11:47:35;9.20;;;5.07;;
22679;SDS011;11507;44.858;10.374;2024-03-07T11:50:07;6.97;;;4.87;;
22679;SDS011;11507;44.858;10.374;2024-03-07T11:52:39;8.30;;;4.72;;
22679;SDS011;11507;44.858;10.374;2024-03-07T11:55:09;8.00;;;4.18;;
22679;SDS011;11507;44.858;10.374;2024-03-07T11:57:36;7.60;;;4.35;;
22679;SDS011;11507;44.858;10.374;2024-03-07T12:00:04;6.88;;;4.78;;
22679;SDS011;11507;44.858;10.374;2024-03-07T12:02:39;7.05;;;4.90;;
22679;SDS011;11507;44.858;10.374;2024-03-07T12:05:06;7.53;;;4.93;;
22679;SDS011;11507;44.858;10.374;2024-03-07T12:07:33;8.13;;;5.07;;
22679;SDS011;11507;44.858;10.374;2024-03-07T12:10:00;7.57;;;4.68;;
22679;SDS011;11507;44.858;10.374;2024-03-07T12:12:30;6.93;;;4.82;;
22679;SDS011;11507;44.858;10.374;2024-03-07T12:14:58;8.02;;;4.75;;
22679;SDS011;11507;44.858;10.374;2024-03-07T12:17:25;8.13;;;5.20;;
22679;SDS011;11507;44.858;10.374;2024-03-07T12:19:51;7.60;;;4.72;;
22679;SDS011;11507;44.858;10.374;2024-03-07T12:22:19;7.70;;;4.65;;
22679;SDS011;11507;44.858;10.374;2024-03-07T12:25:09;6.97;;;4.60;;
22679;SDS011;11507;44.858;10.374;2024-03-07T12:27:36;8.35;;;4.90;;
22679;SDS011;11507;44.858;10.374;2024-03-07T12:30:14;6.38;;;4.85;;
22679;SDS011;11507;44.858;10.374;2024-03-07T12:32:48;7.68;;;4.40;;
22679;SDS011;11507;44.858;10.374;2024-03-07T12:35:15;6.28;;;4.50;;
22679;SDS011;11507;44.858;10.374;2024-03-07T12:37:42;6.07;;;4.75;;
22679;SDS011;11507;44.858;10.374;2024-03-07T12:40:12;8.63;;;4.50;;
22679;SDS011;11507;44.858;10.374;2024-03-07T12:42:50;7.43;;;4.63;;
22679;SDS011;11507;44.858;10.374;2024-03-07T12:45:20;7.80;;;4.70;;
22679;SDS011;11507;44.858;10.374;2024-03-07T12:47:47;7.22;;;4.20;;
22679;SDS011;11507;44.858;10.374;2024-03-07T12:50:18;6.80;;;4.32;;
22679;SDS011;11507;44.858;10.374;2024-03-07T12:52:49;6.28;;;4.15;;
22679;SDS011;11507;44.858;10.374;2024-03-07T12:55:16;6.15;;;3.90;;
22679;SDS011;11507;44.858;10.374;2024-03-07T12:57:49;4.93;;;3.50;;
22679;SDS011;11507;44.858;10.374;2024-03-07T13:00:16;5.40;;;3.25;;
22679;SDS011;11507;44.858;10.374;2024-03-07T13:02:46;5.10;;;3.40;;
22679;SDS011;11507;44.858;10.374;2024-03-07T13:05:13;5.85;;;3.67;;
22679;SDS011;11507;44.858;10.374;2024-03-07T13:07:49;8.38;;;4.10;;
22679;SDS011;11507;44.858;10.374;2024-03-07T13:10:16;6.40;;;4.05;;
22679;SDS011;11507;44.858;10.374;2024-03-07T13:12:43;4.88;;;3.60;;
22679;SDS011;11507;44.858;10.374;2024-03-07T13:15:14;7.47;;;4.15;;
22679;SDS011;11507;44.858;10.374;2024-03-07T13:17:43;5.70;;;3.53;;
22679;SDS011;11507;44.858;10.374;2024-03-07T13:20:10;7.13;;;4.13;;
22679;SDS011;11507;44.858;10.374;2024-03-07T13:22:41;7.55;;;4.40;;
22679;SDS011;11507;44.858;10.374;2024-03-07T13:28:07;6.40;;;4.13;;
22679;SDS011;11507;44.858;10.374;2024-03-07T13:30:39;8.88;;;4.38;;
22679;SDS011;11507;44.858;10.374;2024-03-07T13:33:06;7.22;;;4.45;;
22679;SDS011;11507;44.858;10.374;2024-03-07T13:35:37;7.13;;;4.60;;
22679;SDS011;11507;44.858;10.374;2024-03-07T13:38:05;6.68;;;4.65;;
22679;SDS011;11507;44.858;10.374;2024-03-07T13:40:32;6.45;;;4.63;;
22679;SDS011;11507;44.858;10.374;2024-03-07T13:45:34;6.68;;;4.63;;
22679;SDS011;11507;44.858;10.374;2024-03-07T13:48:05;6.10;;;4.53;;
22679;SDS011;11507;44.858;10.374;2024-03-07T13:50:34;5.85;;;4.50;;
22679;SDS011;11507;44.858;10.374;2024-03-07T13:53:01;5.90;;;4.40;;
22679;SDS011;11507;44.858;10.374;2024-03-07T13:58:54;7.00;;;4.47;;
22679;SDS011;11507;44.858;10.374;2024-03-07T14:07:39;6.93;;;4.00;;
22679;SDS011;11507;44.858;10.374;2024-03-07T14:25:03;6.45;;;3.90;;
22679;SDS011;11507;44.858;10.374;2024-03-07T14:27:53;6.07;;;4.00;;
22679;SDS011;11507;44.858;10.374;2024-03-07T14:30:51;5.50;;;3.80;;
22679;SDS011;11507;44.858;10.374;2024-03-07T14:33:31;7.53;;;4.20;;
22679;SDS011;11507;44.858;10.374;2024-03-07T14:36:13;5.72;;;3.92;;
22679;SDS011;11507;44.858;10.374;2024-03-07T14:38:53;9.18;;;4.05;;
22679;SDS011;11507;44.858;10.374;2024-03-07T14:44:17;6.63;;;3.90;;
22679;SDS011;11507;44.858;10.374;2024-03-07T14:46:45;6.22;;;3.72;;
22679;SDS011;11507;44.858;10.374;2024-03-07T14:49:14;7.65;;;4.20;;
22679;SDS011;11507;44.858;10.374;2024-03-07T14:51:43;6.60;;;3.90;;
22679;SDS011;11507;44.858;10.374;2024-03-07T14:54:11;6.20;;;3.92;;
22679;SDS011;11507;44.858;10.374;2024-03-07T14:56:38;5.45;;;3.65;;
22679;SDS011;11507;44.858;10.374;2024-03-07T14:59:04;5.55;;;3.60;;
22679;SDS011;11507;44.858;10.374;2024-03-07T15:01:31;6.25;;;3.88;;
22679;SDS011;11507;44.858;10.374;2024-03-07T15:04:01;5.25;;;3.83;;
22679;SDS011;11507;44.858;10.374;2024-03-07T15:06:33;5.85;;;3.67;;
22679;SDS011;11507;44.858;10.374;2024-03-07T15:09:00;5.50;;;3.67;;
22679;SDS011;11507;44.858;10.374;2024-03-07T15:11:29;7.03;;;3.80;;
22679;SDS011;11507;44.858;10.374;2024-03-07T15:14:01;5.85;;;3.53;;
22679;SDS011;11507;44.858;10.374;2024-03-07T15:16:30;6.35;;;3.42;;
22679;SDS011;11507;44.858;10.374;2024-03-07T15:19:06;6.05;;;3.83;;
22679;SDS011;11507;44.858;10.374;2024-03-07T15:21:35;5.55;;;3.35;;
22679;SDS011;11507;44.858;10.374;2024-03-07T15:24:03;7.18;;;4.40;;
22679;SDS011;11507;44.858;10.374;2024-03-07T15:26:30;6.95;;;3.88;;
22679;SDS011;11507;44.858;10.374;2024-03-07T15:28:57;8.95;;;3.97;;
22679;SDS011;11507;44.858;10.374;2024-03-07T15:31:26;6.13;;;4.05;;